Main page
METAR-TAF:

METAR-TAF

Airports :

Pyongyang, North Korea

Pyongyang Sunan International Airport

latitude: 39-02N, longitude: 125-47E, elevation: 36 m

METAR: missing

Time: 06:18 (21:48 UTC)

Forecast

The report was made 17 hours and 28 minutes ago, at 04:20 UTC
Forecast valid from 28 at 06 UTC to 29 at 06 UTC
Wind 10 kt from the West
Visibility 10 km or more
no clouds below 1500 m and no cumulonimbus

TAF: ZKPY 280420Z 2806/2906 28005MPS CAVOK

Weather observations and forecasts of more than 4000 airports (METAR and TAF reports).

The available stations are represented by yellow and red dots on the map.

Hover mouse over dot to see the name of the station.

Then click to see weather observations and forecasts.

To change the map : click on the green buttons with a black cross to zoom in, on the green button with a dash to zoom out, or on the green arrows for adjacent maps.


METAR-TAF: